sensor_id;sensor_type;location;lat;lon;timestamp;pressure;altitude;pressure_sealevel;temperature;humidity
43125;BME280;49182;50.788;7.318;2023-12-20T00:00:44;100813.47;;;7.08;100.00
43125;BME280;49182;50.788;7.318;2023-12-20T00:05:46;100767.72;;;6.86;100.00
43125;BME280;49182;50.788;7.318;2023-12-20T00:10:49;100803.69;;;7.10;100.00
43125;BME280;49182;50.788;7.318;2023-12-20T00:15:51;100665.44;;;6.36;100.00
43125;BME280;49182;50.788;7.318;2023-12-20T00:20:53;100711.16;;;6.70;100.00
43125;BME280;49182;50.788;7.318;2023-12-20T00:25:56;100800.31;;;7.20;100.00
43125;BME280;49182;50.788;7.318;2023-12-20T00:30:58;100780.59;;;7.15;100.00
43125;BME280;49182;50.788;7.318;2023-12-20T00:35:59;100798.75;;;7.18;100.00
43125;BME280;49182;50.788;7.318;2023-12-20T00:41:03;100790.34;;;7.25;100.00
43125;BME280;49182;50.788;7.318;2023-12-20T00:46:05;100791.91;;;7.28;100.00
43125;BME280;49182;50.788;7.318;2023-12-20T00:51:06;100795.50;;;7.27;100.00
43125;BME280;49182;50.788;7.318;2023-12-20T00:56:10;100785.50;;;7.32;100.00
43125;BME280;49182;50.788;7.318;2023-12-20T01:01:12;100778.66;;;7.29;100.00
43125;BME280;49182;50.788;7.318;2023-12-20T01:06:14;100789.91;;;7.31;100.00
43125;BME280;49182;50.788;7.318;2023-12-20T01:11:17;100789.16;;;7.29;100.00
43125;BME280;49182;50.788;7.318;2023-12-20T01:16:18;100798.72;;;7.30;100.00
43125;BME280;49182;50.788;7.318;2023-12-20T01:21:20;100815.84;;;7.23;100.00
43125;BME280;49182;50.788;7.318;2023-12-20T01:26:23;100826.34;;;7.23;100.00
43125;BME280;49182;50.788;7.318;2023-12-20T01:31:26;100797.22;;;7.03;100.00
43125;BME280;49182;50.788;7.318;2023-12-20T01:36:28;100832.69;;;7.21;100.00
43125;BME280;49182;50.788;7.318;2023-12-20T01:41:31;100824.66;;;7.22;100.00
43125;BME280;49182;50.788;7.318;2023-12-20T01:46:33;100819.31;;;7.24;100.00
43125;BME280;49182;50.788;7.318;2023-12-20T01:51:35;100837.28;;;7.17;100.00
43125;BME280;49182;50.788;7.318;2023-12-20T01:56:39;100854.63;;;7.20;100.00
43125;BME280;49182;50.788;7.318;2023-12-20T02:01:41;100857.66;;;7.26;100.00
43125;BME280;49182;50.788;7.318;2023-12-20T02:06:43;100706.38;;;6.38;100.00
43125;BME280;49182;50.788;7.318;2023-12-20T02:11:49;100843.78;;;7.24;100.00
43125;BME280;49182;50.788;7.318;2023-12-20T02:16:51;100808.75;;;6.87;100.00
43125;BME280;49182;50.788;7.318;2023-12-20T02:22:06;100865.31;;;7.17;100.00
43125;BME280;49182;50.788;7.318;2023-12-20T02:27:08;100856.41;;;7.07;100.00
43125;BME280;49182;50.788;7.318;2023-12-20T02:32:10;100880.38;;;7.15;100.00
43125;BME280;49182;50.788;7.318;2023-12-20T02:37:14;100858.28;;;6.79;100.00
43125;BME280;49182;50.788;7.318;2023-12-20T02:42:15;100874.88;;;6.93;100.00
43125;BME280;49182;50.788;7.318;2023-12-20T02:47:17;100884.44;;;6.81;100.00
43125;BME280;49182;50.788;7.318;2023-12-20T02:52:21;100897.22;;;6.73;100.00
43125;BME280;49182;50.788;7.318;2023-12-20T02:57:23;100904.84;;;6.50;100.00
43125;BME280;49182;50.788;7.318;2023-12-20T03:02:24;100940.38;;;6.42;100.00
43125;BME280;49182;50.788;7.318;2023-12-20T03:07:28;100923.94;;;6.40;100.00
43125;BME280;49182;50.788;7.318;2023-12-20T03:12:29;100931.75;;;6.27;100.00
43125;BME280;49182;50.788;7.318;2023-12-20T03:17:31;100918.63;;;6.27;100.00
43125;BME280;49182;50.788;7.318;2023-12-20T03:22:34;100919.34;;;6.17;100.00
43125;BME280;49182;50.788;7.318;2023-12-20T03:27:37;100926.53;;;6.13;100.00
43125;BME280;49182;50.788;7.318;2023-12-20T03:32:38;100928.97;;;6.16;100.00
43125;BME280;49182;50.788;7.318;2023-12-20T03:37:41;100920.28;;;6.16;100.00
43125;BME280;49182;50.788;7.318;2023-12-20T03:42:43;100907.88;;;6.18;100.00
43125;BME280;49182;50.788;7.318;2023-12-20T03:47:45;100789.97;;;5.50;100.00
43125;BME280;49182;50.788;7.318;2023-12-20T03:52:49;100901.72;;;6.19;100.00
43125;BME280;49182;50.788;7.318;2023-12-20T03:57:51;100909.69;;;6.17;100.00
43125;BME280;49182;50.788;7.318;2023-12-20T04:02:52;100906.41;;;6.14;100.00
43125;BME280;49182;50.788;7.318;2023-12-20T04:07:55;100911.56;;;6.15;100.00
43125;BME280;49182;50.788;7.318;2023-12-20T04:12:57;100916.81;;;6.15;100.00
43125;BME280;49182;50.788;7.318;2023-12-20T04:17:59;100925.50;;;6.16;100.00
43125;BME280;49182;50.788;7.318;2023-12-20T04:23:02;100931.16;;;6.09;100.00
43125;BME280;49182;50.788;7.318;2023-12-20T04:28:04;100913.91;;;6.05;100.00
43125;BME280;49182;50.788;7.318;2023-12-20T04:33:06;100916.44;;;6.07;100.00
43125;BME280;49182;50.788;7.318;2023-12-20T04:38:09;100924.00;;;6.12;100.00
43125;BME280;49182;50.788;7.318;2023-12-20T04:43:11;100928.31;;;6.13;100.00
43125;BME280;49182;50.788;7.318;2023-12-20T04:48:13;100924.13;;;6.10;100.00
43125;BME280;49182;50.788;7.318;2023-12-20T04:53:16;100922.97;;;6.14;100.00
43125;BME280;49182;50.788;7.318;2023-12-20T04:58:20;100919.13;;;6.20;100.00
43125;BME280;49182;50.788;7.318;2023-12-20T05:03:21;100921.13;;;6.16;100.00
43125;BME280;49182;50.788;7.318;2023-12-20T05:08:24;100925.50;;;6.16;100.00
43125;BME280;49182;50.788;7.318;2023-12-20T05:13:27;100933.06;;;6.20;100.00
43125;BME280;49182;50.788;7.318;2023-12-20T05:18:42;100924.66;;;6.15;100.00
43125;BME280;49182;50.788;7.318;2023-12-20T05:23:45;100926.63;;;6.12;100.00
43125;BME280;49182;50.788;7.318;2023-12-20T05:28:47;100918.38;;;6.18;100.00
43125;BME280;49182;50.788;7.318;2023-12-20T05:33:48;100929.25;;;6.12;100.00
43125;BME280;49182;50.788;7.318;2023-12-20T05:38:51;100932.44;;;6.17;100.00
43125;BME280;49182;50.788;7.318;2023-12-20T05:43:53;100921.97;;;6.17;100.00
43125;BME280;49182;50.788;7.318;2023-12-20T05:48:55;100929.47;;;6.08;100.00
43125;BME280;49182;50.788;7.318;2023-12-20T05:53:58;100894.03;;;5.75;100.00
43125;BME280;49182;50.788;7.318;2023-12-20T05:59:00;100943.13;;;5.99;100.00
43125;BME280;49182;50.788;7.318;2023-12-20T06:04:02;100927.78;;;6.07;100.00
43125;BME280;49182;50.788;7.318;2023-12-20T06:09:05;100928.00;;;6.04;100.00
43125;BME280;49182;50.788;7.318;2023-12-20T06:14:07;100942.56;;;6.08;100.00
43125;BME280;49182;50.788;7.318;2023-12-20T06:19:08;100942.47;;;6.10;100.00
43125;BME280;49182;50.788;7.318;2023-12-20T06:24:11;100942.75;;;6.05;100.00
43125;BME280;49182;50.788;7.318;2023-12-20T06:29:13;100938.56;;;6.03;100.00
43125;BME280;49182;50.788;7.318;2023-12-20T06:34:15;100941.88;;;5.92;100.00
43125;BME280;49182;50.788;7.318;2023-12-20T06:39:18;100938.75;;;6.00;100.00
43125;BME280;49182;50.788;7.318;2023-12-20T06:44:19;100939.66;;;5.99;100.00
43125;BME280;49182;50.788;7.318;2023-12-20T06:49:22;100950.06;;;6.00;100.00
43125;BME280;49182;50.788;7.318;2023-12-20T06:54:25;100943.88;;;6.01;100.00
43125;BME280;49182;50.788;7.318;2023-12-20T06:59:26;100949.22;;;6.00;100.00
43125;BME280;49182;50.788;7.318;2023-12-20T07:04:28;100948.28;;;6.01;100.00
43125;BME280;49182;50.788;7.318;2023-12-20T07:09:31;100940.34;;;6.02;100.00
43125;BME280;49182;50.788;7.318;2023-12-20T07:14:32;100940.44;;;6.01;100.00
43125;BME280;49182;50.788;7.318;2023-12-20T07:19:34;100955.78;;;5.93;100.00
43125;BME280;49182;50.788;7.318;2023-12-20T07:24:37;100946.06;;;5.95;100.00
43125;BME280;49182;50.788;7.318;2023-12-20T07:29:39;100952.53;;;5.89;100.00
43125;BME280;49182;50.788;7.318;2023-12-20T07:34:41;100966.47;;;6.04;100.00
43125;BME280;49182;50.788;7.318;2023-12-20T07:39:44;100976.09;;;5.89;100.00
43125;BME280;49182;50.788;7.318;2023-12-20T07:44:45;100975.44;;;6.00;100.00
43125;BME280;49182;50.788;7.318;2023-12-20T07:49:47;100971.13;;;5.99;100.00
43125;BME280;49182;50.788;7.318;2023-12-20T07:54:51;100966.00;;;5.97;100.00
43125;BME280;49182;50.788;7.318;2023-12-20T07:59:52;100964.09;;;5.99;100.00
43125;BME280;49182;50.788;7.318;2023-12-20T08:04:54;100957.63;;;6.05;100.00
43125;BME280;49182;50.788;7.318;2023-12-20T08:09:57;100962.59;;;6.09;100.00
43125;BME280;49182;50.788;7.318;2023-12-20T08:14:59;100967.63;;;6.13;100.00
43125;BME280;49182;50.788;7.318;2023-12-20T08:20:01;100961.47;;;6.14;100.00
43125;BME280;49182;50.788;7.318;2023-12-20T08:25:05;100962.31;;;6.14;100.00
43125;BME280;49182;50.788;7.318;2023-12-20T08:30:08;100982.03;;;6.20;100.00
43125;BME280;49182;50.788;7.318;2023-12-20T08:35:10;100972.31;;;6.22;100.00
43125;BME280;49182;50.788;7.318;2023-12-20T08:40:13;100974.53;;;6.28;100.00
43125;BME280;49182;50.788;7.318;2023-12-20T08:45:15;100934.03;;;6.05;100.00
43125;BME280;49182;50.788;7.318;2023-12-20T08:50:17;100959.53;;;6.30;100.00
43125;BME280;49182;50.788;7.318;2023-12-20T08:55:21;100966.28;;;6.34;100.00
43125;BME280;49182;50.788;7.318;2023-12-20T09:00:22;100940.38;;;6.29;100.00
43125;BME280;49182;50.788;7.318;2023-12-20T09:05:24;100967.28;;;6.45;100.00
43125;BME280;49182;50.788;7.318;2023-12-20T09:10:27;100976.91;;;6.45;100.00
43125;BME280;49182;50.788;7.318;2023-12-20T09:15:29;100974.19;;;6.46;100.00
43125;BME280;49182;50.788;7.318;2023-12-20T09:20:35;100977.66;;;6.47;100.00
43125;BME280;49182;50.788;7.318;2023-12-20T09:25:40;100884.75;;;5.83;100.00
43125;BME280;49182;50.788;7.318;2023-12-20T09:30:41;100971.75;;;6.43;100.00
43125;BME280;49182;50.788;7.318;2023-12-20T09:35:43;100964.16;;;6.53;100.00
43125;BME280;49182;50.788;7.318;2023-12-20T09:40:47;100968.88;;;6.48;99.47
43125;BME280;49182;50.788;7.318;2023-12-20T09:45:53;100939.84;;;6.37;99.46
43125;BME280;49182;50.788;7.318;2023-12-20T09:50:55;100948.66;;;6.36;98.52
43125;BME280;49182;50.788;7.318;2023-12-20T09:55:59;100966.56;;;6.56;97.54
43125;BME280;49182;50.788;7.318;2023-12-20T10:01:01;100952.72;;;6.67;98.13
43125;BME280;49182;50.788;7.318;2023-12-20T10:06:04;100945.16;;;6.62;98.48
43125;BME280;49182;50.788;7.318;2023-12-20T10:11:08;100945.94;;;6.64;99.72
43125;BME280;49182;50.788;7.318;2023-12-20T10:16:10;100947.00;;;6.74;98.46
43125;BME280;49182;50.788;7.318;2023-12-20T10:21:12;100943.97;;;6.80;97.34
43125;BME280;49182;50.788;7.318;2023-12-20T10:26:20;100943.44;;;6.75;97.38
43125;BME280;49182;50.788;7.318;2023-12-20T10:31:30;100936.59;;;6.73;98.18
43125;BME280;49182;50.788;7.318;2023-12-20T10:36:33;100850.56;;;6.26;97.76
43125;BME280;49182;50.788;7.318;2023-12-20T10:41:36;100933.97;;;6.73;95.87
43125;BME280;49182;50.788;7.318;2023-12-20T10:46:39;100909.53;;;6.72;97.50
43125;BME280;49182;50.788;7.318;2023-12-20T10:51:42;100882.63;;;6.56;98.04
43125;BME280;49182;50.788;7.318;2023-12-20T10:56:46;100904.81;;;6.77;97.90
43125;BME280;49182;50.788;7.318;2023-12-20T11:01:50;100904.38;;;6.71;97.83
43125;BME280;49182;50.788;7.318;2023-12-20T11:06:56;100905.13;;;6.85;97.24
43125;BME280;49182;50.788;7.318;2023-12-20T11:12:08;100903.47;;;6.84;97.99
43125;BME280;49182;50.788;7.318;2023-12-20T11:17:11;100898.94;;;6.86;98.64
43125;BME280;49182;50.788;7.318;2023-12-20T11:22:14;100911.34;;;6.84;97.09
43125;BME280;49182;50.788;7.318;2023-12-20T11:27:18;100904.94;;;6.88;97.07
43125;BME280;49182;50.788;7.318;2023-12-20T11:32:29;100903.75;;;6.93;97.40
43125;BME280;49182;50.788;7.318;2023-12-20T11:37:35;100911.88;;;6.89;98.22
43125;BME280;49182;50.788;7.318;2023-12-20T11:42:39;100882.47;;;6.84;97.00
43125;BME280;49182;50.788;7.318;2023-12-20T11:47:42;100909.44;;;6.99;98.11
43125;BME280;49182;50.788;7.318;2023-12-20T11:52:46;100892.97;;;6.97;97.78
43125;BME280;49182;50.788;7.318;2023-12-20T11:57:49;100887.19;;;7.05;96.29
43125;BME280;49182;50.788;7.318;2023-12-20T12:02:55;100810.25;;;6.54;96.55
43125;BME280;49182;50.788;7.318;2023-12-20T12:07:57;100879.22;;;7.06;96.26
43125;BME280;49182;50.788;7.318;2023-12-20T12:13:00;100867.66;;;7.09;96.49
43125;BME280;49182;50.788;7.318;2023-12-20T12:18:03;100855.38;;;7.09;96.44
43125;BME280;49182;50.788;7.318;2023-12-20T12:23:05;100855.81;;;7.03;95.85
43125;BME280;49182;50.788;7.318;2023-12-20T12:28:09;100844.75;;;7.11;96.62
43125;BME280;49182;50.788;7.318;2023-12-20T12:33:11;100842.34;;;7.08;95.98
43125;BME280;49182;50.788;7.318;2023-12-20T12:38:13;100828.91;;;7.00;95.28
43125;BME280;49182;50.788;7.318;2023-12-20T12:43:16;100834.38;;;7.09;95.43
43125;BME280;49182;50.788;7.318;2023-12-20T12:48:18;100824.91;;;7.07;94.91
43125;BME280;49182;50.788;7.318;2023-12-20T12:53:20;100820.59;;;7.18;94.53
43125;BME280;49182;50.788;7.318;2023-12-20T12:58:23;100814.59;;;7.16;96.15
43125;BME280;49182;50.788;7.318;2023-12-20T13:03:25;100803.91;;;7.19;96.35
43125;BME280;49182;50.788;7.318;2023-12-20T13:08:26;100813.34;;;7.22;95.08
43125;BME280;49182;50.788;7.318;2023-12-20T13:13:31;100806.63;;;7.18;95.58
43125;BME280;49182;50.788;7.318;2023-12-20T13:18:33;100799.59;;;7.18;95.11
43125;BME280;49182;50.788;7.318;2023-12-20T13:23:35;100792.56;;;7.19;95.35
43125;BME280;49182;50.788;7.318;2023-12-20T13:28:42;100777.19;;;7.25;95.67
43125;BME280;49182;50.788;7.318;2023-12-20T13:33:44;100772.56;;;7.29;96.19
43125;BME280;49182;50.788;7.318;2023-12-20T13:38:45;100774.25;;;7.30;97.54
43125;BME280;49182;50.788;7.318;2023-12-20T13:43:48;100714.28;;;6.87;100.00
43125;BME280;49182;50.788;7.318;2023-12-20T13:48:50;100779.97;;;6.99;100.00
43125;BME280;49182;50.788;7.318;2023-12-20T13:53:52;100735.09;;;6.78;100.00
43125;BME280;49182;50.788;7.318;2023-12-20T13:58:55;100756.16;;;7.02;100.00
43125;BME280;49182;50.788;7.318;2023-12-20T14:03:57;100757.19;;;6.99;100.00
43125;BME280;49182;50.788;7.318;2023-12-20T14:08:59;100742.53;;;6.97;100.00
43125;BME280;49182;50.788;7.318;2023-12-20T14:14:02;100735.78;;;6.93;100.00
43125;BME280;49182;50.788;7.318;2023-12-20T14:19:03;100728.06;;;6.78;100.00
43125;BME280;49182;50.788;7.318;2023-12-20T14:24:05;100684.13;;;6.44;100.00
43125;BME280;49182;50.788;7.318;2023-12-20T14:29:09;100727.94;;;6.67;100.00
43125;BME280;49182;50.788;7.318;2023-12-20T14:34:10;100716.50;;;6.68;100.00
43125;BME280;49182;50.788;7.318;2023-12-20T14:39:12;100714.22;;;6.64;100.00
43125;BME280;49182;50.788;7.318;2023-12-20T14:44:15;100707.94;;;6.66;100.00
43125;BME280;49182;50.788;7.318;2023-12-20T14:49:16;100703.81;;;6.62;100.00
43125;BME280;49182;50.788;7.318;2023-12-20T14:54:18;100689.78;;;6.50;100.00
43125;BME280;49182;50.788;7.318;2023-12-20T14:59:21;100721.34;;;6.74;100.00
43125;BME280;49182;50.788;7.318;2023-12-20T15:04:23;100720.38;;;6.75;100.00
43125;BME280;49182;50.788;7.318;2023-12-20T15:09:25;100721.97;;;6.78;100.00
43125;BME280;49182;50.788;7.318;2023-12-20T15:14:28;100728.78;;;6.80;100.00
43125;BME280;49182;50.788;7.318;2023-12-20T15:19:30;100721.66;;;6.82;100.00
43125;BME280;49182;50.788;7.318;2023-12-20T15:24:32;100719.13;;;6.81;100.00
43125;BME280;49182;50.788;7.318;2023-12-20T15:29:35;100727.63;;;6.84;100.00
43125;BME280;49182;50.788;7.318;2023-12-20T15:34:37;100715.03;;;6.89;100.00
43125;BME280;49182;50.788;7.318;2023-12-20T15:39:39;100724.69;;;6.89;100.00
43125;BME280;49182;50.788;7.318;2023-12-20T15:44:42;100709.88;;;6.88;100.00
43125;BME280;49182;50.788;7.318;2023-12-20T15:49:43;100720.97;;;6.91;100.00
43125;BME280;49182;50.788;7.318;2023-12-20T15:54:45;100708.19;;;6.87;100.00
43125;BME280;49182;50.788;7.318;2023-12-20T15:59:48;100701.16;;;6.87;100.00
43125;BME280;49182;50.788;7.318;2023-12-20T16:04:50;100705.03;;;6.95;100.00
43125;BME280;49182;50.788;7.318;2023-12-20T16:09:51;100703.44;;;6.92;100.00
43125;BME280;49182;50.788;7.318;2023-12-20T16:14:55;100682.78;;;6.87;100.00
43125;BME280;49182;50.788;7.318;2023-12-20T16:19:56;100693.50;;;6.97;100.00
43125;BME280;49182;50.788;7.318;2023-12-20T16:24:58;100695.28;;;6.97;100.00
43125;BME280;49182;50.788;7.318;2023-12-20T16:30:02;100682.00;;;6.98;100.00
43125;BME280;49182;50.788;7.318;2023-12-20T16:35:04;100684.28;;;7.15;100.00
43125;BME280;49182;50.788;7.318;2023-12-20T16:40:07;100683.66;;;7.12;100.00
43125;BME280;49182;50.788;7.318;2023-12-20T16:45:11;100688.91;;;7.12;100.00
43125;BME280;49182;50.788;7.318;2023-12-20T16:50:12;100689.19;;;7.20;100.00
43125;BME280;49182;50.788;7.318;2023-12-20T16:55:15;100687.13;;;7.12;100.00
43125;BME280;49182;50.788;7.318;2023-12-20T17:00:18;100663.50;;;7.12;100.00
43125;BME280;49182;50.788;7.318;2023-12-20T17:05:20;100689.81;;;7.23;100.00
43125;BME280;49182;50.788;7.318;2023-12-20T17:10:21;100686.47;;;7.21;100.00
43125;BME280;49182;50.788;7.318;2023-12-20T17:15:24;100685.91;;;7.29;100.00
43125;BME280;49182;50.788;7.318;2023-12-20T17:20:26;100677.03;;;7.19;100.00
43125;BME280;49182;50.788;7.318;2023-12-20T17:25:28;100648.22;;;6.94;100.00
43125;BME280;49182;50.788;7.318;2023-12-20T17:30:31;100671.66;;;7.20;100.00
43125;BME280;49182;50.788;7.318;2023-12-20T17:35:33;100662.25;;;7.29;100.00
43125;BME280;49182;50.788;7.318;2023-12-20T17:40:34;100655.34;;;7.28;100.00
43125;BME280;49182;50.788;7.318;2023-12-20T17:45:38;100433.41;;;5.94;100.00
43125;BME280;49182;50.788;7.318;2023-12-20T17:50:39;100644.22;;;7.24;100.00
43125;BME280;49182;50.788;7.318;2023-12-20T17:55:41;100635.59;;;7.22;100.00
43125;BME280;49182;50.788;7.318;2023-12-20T18:00:45;100643.47;;;7.22;100.00
43125;BME280;49182;50.788;7.318;2023-12-20T18:05:46;100627.53;;;7.25;100.00
43125;BME280;49182;50.788;7.318;2023-12-20T18:10:48;100625.28;;;7.32;100.00
43125;BME280;49182;50.788;7.318;2023-12-20T18:15:51;100615.63;;;7.32;100.00
43125;BME280;49182;50.788;7.318;2023-12-20T18:20:53;100607.75;;;7.32;100.00
43125;BME280;49182;50.788;7.318;2023-12-20T18:25:55;100607.50;;;7.36;100.00
43125;BME280;49182;50.788;7.318;2023-12-20T18:30:58;100603.19;;;7.35;100.00
43125;BME280;49182;50.788;7.318;2023-12-20T18:36:00;100592.78;;;7.22;100.00
43125;BME280;49182;50.788;7.318;2023-12-20T18:41:01;100600.69;;;7.33;100.00
43125;BME280;49182;50.788;7.318;2023-12-20T18:46:04;100588.28;;;7.35;100.00
43125;BME280;49182;50.788;7.318;2023-12-20T18:51:06;100584.25;;;7.42;100.00
43125;BME280;49182;50.788;7.318;2023-12-20T18:56:08;100585.44;;;7.38;100.00
43125;BME280;49182;50.788;7.318;2023-12-20T19:01:11;100573.13;;;7.39;100.00
43125;BME280;49182;50.788;7.318;2023-12-20T19:06:13;100549.88;;;7.45;100.00
43125;BME280;49182;50.788;7.318;2023-12-20T19:11:15;100537.88;;;7.30;100.00
43125;BME280;49182;50.788;7.318;2023-12-20T19:16:19;100550.94;;;7.43;100.00
43125;BME280;49182;50.788;7.318;2023-12-20T19:21:21;100558.34;;;7.49;100.00
43125;BME280;49182;50.788;7.318;2023-12-20T19:26:23;100547.16;;;7.47;100.00
43125;BME280;49182;50.788;7.318;2023-12-20T19:31:26;100534.97;;;7.57;100.00
43125;BME280;49182;50.788;7.318;2023-12-20T19:36:27;100523.84;;;7.53;100.00
43125;BME280;49182;50.788;7.318;2023-12-20T19:41:29;100513.22;;;7.55;100.00
43125;BME280;49182;50.788;7.318;2023-12-20T19:46:32;100512.66;;;7.62;100.00
43125;BME280;49182;50.788;7.318;2023-12-20T19:51:34;100484.31;;;7.55;100.00
43125;BME280;49182;50.788;7.318;2023-12-20T19:56:36;100498.09;;;7.58;100.00
43125;BME280;49182;50.788;7.318;2023-12-20T20:01:39;100489.47;;;7.67;100.00
43125;BME280;49182;50.788;7.318;2023-12-20T20:06:40;100469.53;;;7.76;100.00
43125;BME280;49182;50.788;7.318;2023-12-20T20:11:42;100463.06;;;7.80;100.00
43125;BME280;49182;50.788;7.318;2023-12-20T20:16:45;100448.03;;;7.82;100.00
43125;BME280;49182;50.788;7.318;2023-12-20T20:21:47;100436.31;;;7.86;100.00
43125;BME280;49182;50.788;7.318;2023-12-20T20:26:49;100420.44;;;7.88;99.78
43125;BME280;49182;50.788;7.318;2023-12-20T20:31:52;100428.19;;;7.89;100.00
43125;BME280;49182;50.788;7.318;2023-12-20T20:36:53;100420.66;;;7.96;99.98
43125;BME280;49182;50.788;7.318;2023-12-20T20:41:55;100422.94;;;7.89;100.00
43125;BME280;49182;50.788;7.318;2023-12-20T20:46:58;100418.97;;;8.06;99.49
43125;BME280;49182;50.788;7.318;2023-12-20T20:52:00;100404.41;;;8.02;99.60
43125;BME280;49182;50.788;7.318;2023-12-20T20:57:03;100390.03;;;8.06;98.77
43125;BME280;49182;50.788;7.318;2023-12-20T21:02:06;100377.13;;;8.03;99.44
43125;BME280;49182;50.788;7.318;2023-12-20T21:07:07;100389.78;;;8.09;98.52
43125;BME280;49182;50.788;7.318;2023-12-20T21:12:09;100398.38;;;8.11;98.85
43125;BME280;49182;50.788;7.318;2023-12-20T21:17:12;100401.84;;;8.11;100.00
43125;BME280;49182;50.788;7.318;2023-12-20T21:22:14;100385.47;;;8.19;100.00
43125;BME280;49182;50.788;7.318;2023-12-20T21:27:16;100369.91;;;8.16;100.00
43125;BME280;49182;50.788;7.318;2023-12-20T21:32:19;100372.81;;;8.13;100.00
43125;BME280;49182;50.788;7.318;2023-12-20T21:37:20;100364.59;;;8.06;100.00
43125;BME280;49182;50.788;7.318;2023-12-20T21:42:22;100362.53;;;8.10;100.00
43125;BME280;49182;50.788;7.318;2023-12-20T21:47:25;100351.50;;;8.16;100.00
43125;BME280;49182;50.788;7.318;2023-12-20T21:52:27;100340.03;;;8.17;100.00
43125;BME280;49182;50.788;7.318;2023-12-20T21:57:29;100330.69;;;8.24;100.00
43125;BME280;49182;50.788;7.318;2023-12-20T22:02:32;100336.88;;;8.34;100.00
43125;BME280;49182;50.788;7.318;2023-12-20T22:07:33;100323.59;;;8.36;100.00
43125;BME280;49182;50.788;7.318;2023-12-20T22:12:35;100300.66;;;8.38;100.00
43125;BME280;49182;50.788;7.318;2023-12-20T22:17:38;100317.78;;;8.32;100.00
43125;BME280;49182;50.788;7.318;2023-12-20T22:22:40;100313.19;;;8.34;100.00
43125;BME280;49182;50.788;7.318;2023-12-20T22:27:42;100300.53;;;8.28;100.00
43125;BME280;49182;50.788;7.318;2023-12-20T22:32:45;100294.31;;;8.29;100.00
43125;BME280;49182;50.788;7.318;2023-12-20T22:37:47;100280.69;;;8.35;100.00
43125;BME280;49182;50.788;7.318;2023-12-20T22:42:49;100269.66;;;8.41;100.00
43125;BME280;49182;50.788;7.318;2023-12-20T22:47:52;100286.84;;;8.45;100.00
43125;BME280;49182;50.788;7.318;2023-12-20T22:52:54;100269.41;;;8.44;100.00
43125;BME280;49182;50.788;7.318;2023-12-20T22:57:56;100261.88;;;8.40;100.00
43125;BME280;49182;50.788;7.318;2023-12-20T23:02:59;100296.53;;;8.45;100.00
43125;BME280;49182;50.788;7.318;2023-12-20T23:08:01;100276.06;;;8.48;100.00
43125;BME280;49182;50.788;7.318;2023-12-20T23:13:03;100277.28;;;8.44;100.00
43125;BME280;49182;50.788;7.318;2023-12-20T23:18:06;100260.03;;;8.31;100.00
43125;BME280;49182;50.788;7.318;2023-12-20T23:23:08;100271.72;;;8.38;100.00
43125;BME280;49182;50.788;7.318;2023-12-20T23:28:10;100265.38;;;8.29;100.00
43125;BME280;49182;50.788;7.318;2023-12-20T23:33:13;100245.81;;;8.22;100.00
43125;BME280;49182;50.788;7.318;2023-12-20T23:38:15;100242.34;;;8.22;100.00
43125;BME280;49182;50.788;7.318;2023-12-20T23:43:16;100232.94;;;8.19;100.00
43125;BME280;49182;50.788;7.318;2023-12-20T23:48:19;100209.91;;;8.11;100.00
43125;BME280;49182;50.788;7.318;2023-12-20T23:53:21;100212.13;;;8.16;100.00
43125;BME280;49182;50.788;7.318;2023-12-20T23:58:23;100190.03;;;8.19;100.00
